Time;durP1;ratioP1;P1;durP2;ratioP2;P2;SDS_P1;SDS_P2;PMS_P1;PMS_P2;Temp;Humidity;BMP_temperature;BMP_pressure;BME280_temperature;BME280_humidity;BME280_pressure;Samples;Min_cycle;Max_cycle;Signal;HPM_P1;HPM_P2
2022/04/11 00:01:01;;;;;;;0.63;0.63;;;16.90;56.80;;;;;;4994964;28;20571;-13
2022/04/11 00:03:27;;;;;;;0.73;0.73;;;16.90;56.80;;;;;;4993346;28;20042;-13
2022/04/11 00:05:52;;;;;;;0.70;0.70;;;16.90;56.80;;;;;;4980934;28;20046;-14
2022/04/11 00:08:19;;;;;;;0.40;0.40;;;16.90;56.90;;;;;;4976088;28;20069;-13
2022/04/11 00:10:46;;;;;;;0.70;0.70;;;16.80;56.80;;;;;;4989419;28;20050;-13
2022/04/11 00:13:11;;;;;;;0.70;0.70;;;16.80;56.90;;;;;;4995595;28;20050;-14
2022/04/11 00:15:39;;;;;;;0.68;0.68;;;16.90;56.80;;;;;;4994964;28;20116;-13
2022/04/11 00:18:05;;;;;;;0.50;0.50;;;16.90;56.70;;;;;;4976742;28;20435;-13
2022/04/11 00:20:30;;;;;;;0.50;0.50;;;16.90;56.90;;;;;;4975231;28;20106;-14
2022/04/11 00:22:56;;;;;;;0.63;0.50;;;16.90;56.90;;;;;;4980802;28;20122;-13
2022/04/11 00:25:22;;;;;;;0.63;0.63;;;16.90;56.90;;;;;;4980603;28;20051;-15
2022/04/11 00:27:48;;;;;;;0.60;0.60;;;16.80;56.90;;;;;;4976029;28;20046;-13
2022/04/11 00:30:13;;;;;;;0.70;0.70;;;16.90;56.90;;;;;;4995151;28;20065;-14
2022/04/11 00:32:40;;;;;;;0.60;0.60;;;16.90;56.90;;;;;;4992629;28;20042;-13
2022/04/11 00:35:07;;;;;;;0.50;0.50;;;16.90;56.90;;;;;;4998416;28;20042;-13
2022/04/11 00:37:33;;;;;;;0.45;0.45;;;16.90;56.90;;;;;;4997622;28;20100;-13
2022/04/11 00:39:58;;;;;;;0.50;0.50;;;16.90;56.80;;;;;;4997793;28;20042;-14
2022/04/11 00:42:26;;;;;;;0.65;0.65;;;16.90;56.80;;;;;;4998905;28;20046;-13
2022/04/11 00:44:52;;;;;;;0.60;0.60;;;16.80;56.80;;;;;;4998450;28;20045;-13
2022/04/11 00:47:18;;;;;;;0.50;0.50;;;16.90;56.80;;;;;;4997588;28;20054;-14
2022/04/11 00:49:43;;;;;;;0.50;0.50;;;16.90;56.80;;;;;;4998072;28;20049;-14
2022/04/11 00:52:09;;;;;;;0.50;0.50;;;16.80;56.90;;;;;;4998614;28;20504;-14
2022/04/11 00:54:34;;;;;;;0.60;0.60;;;16.80;56.90;;;;;;4989212;28;20135;-13
2022/04/11 00:57:00;;;;;;;0.52;0.52;;;16.80;56.80;;;;;;4978249;28;20047;-13
2022/04/11 00:59:25;;;;;;;0.50;0.50;;;16.80;57.50;;;;;;4994863;28;20066;-15
2022/04/11 01:01:51;;;;;;;0.70;0.70;;;16.80;56.90;;;;;;4995644;28;20053;-13
2022/04/11 01:04:23;;;;;;;0.40;0.40;;;16.80;56.90;;;;;;4998536;28;20046;-13
2022/04/11 01:06:55;;;;;;;0.60;0.60;;;16.80;56.90;;;;;;4997072;28;20121;-14
2022/04/11 01:09:22;;;;;;;0.50;0.50;;;16.70;57.00;;;;;;4997397;28;20039;-14
2022/04/11 01:11:48;;;;;;;0.55;0.55;;;16.80;57.10;;;;;;4997666;28;20092;-13
2022/04/11 01:14:13;;;;;;;0.70;0.70;;;16.80;57.00;;;;;;4997677;28;20050;-14
2022/04/11 01:16:39;;;;;;;0.50;0.50;;;16.80;56.90;;;;;;4997009;28;20546;-14
2022/04/11 01:19:04;;;;;;;0.60;0.57;;;16.80;56.90;;;;;;4998061;28;20040;-13
2022/04/11 01:21:31;;;;;;;0.30;0.30;;;16.80;56.90;;;;;;4997328;28;20051;-14
2022/04/11 01:23:57;;;;;;;0.50;0.50;;;16.80;56.90;;;;;;4996765;28;20050;-13
2022/04/11 01:26:22;;;;;;;0.40;0.40;;;16.80;57.00;;;;;;4997841;28;20438;-13
2022/04/11 01:28:48;;;;;;;0.50;0.50;;;16.70;57.00;;;;;;4996645;28;20051;-14
2022/04/11 01:31:15;;;;;;;0.40;0.40;;;16.70;57.00;;;;;;4997856;28;20042;-14
2022/04/11 01:33:41;;;;;;;0.32;0.32;;;16.70;57.00;;;;;;4995511;28;20043;-13
2022/04/11 01:36:06;;;;;;;0.60;0.60;;;16.70;57.00;;;;;;4997035;28;20120;-13
2022/04/11 01:38:32;;;;;;;0.57;0.57;;;16.70;57.10;;;;;;4996924;28;20050;-14
2022/04/11 01:40:57;;;;;;;0.52;0.52;;;16.70;57.00;;;;;;4994675;28;20042;-13
2022/04/11 01:43:24;;;;;;;0.40;0.40;;;16.80;57.10;;;;;;4997587;28;20471;-13
2022/04/11 01:45:49;;;;;;;0.45;0.45;;;16.70;57.00;;;;;;4997145;28;20080;-13
2022/04/11 01:48:15;;;;;;;0.45;0.45;;;16.70;57.10;;;;;;4996645;28;20042;-14
2022/04/11 01:50:41;;;;;;;0.40;0.40;;;16.70;57.00;;;;;;4997046;28;20050;-13
2022/04/11 01:53:07;;;;;;;0.45;0.45;;;16.70;57.00;;;;;;4997557;28;20050;-13
2022/04/11 01:55:34;;;;;;;0.60;0.60;;;16.70;57.10;;;;;;4994467;28;20185;-13
2022/04/11 01:58:00;;;;;;;0.40;0.40;;;16.70;57.10;;;;;;4997447;28;20034;-13
2022/04/11 02:00:26;;;;;;;0.50;0.50;;;16.70;57.00;;;;;;4996779;28;20526;-13
2022/04/11 02:02:52;;;;;;;0.45;0.45;;;16.70;57.00;;;;;;4996823;28;20069;-13
2022/04/11 02:05:18;;;;;;;0.40;0.40;;;16.70;57.00;;;;;;4997970;28;20070;-13
2022/04/11 02:07:43;;;;;;;0.50;0.50;;;16.70;57.10;;;;;;4996653;28;20092;-13
2022/04/11 02:10:09;;;;;;;0.50;0.50;;;16.70;57.10;;;;;;4996258;28;20054;-13
2022/04/11 02:12:35;;;;;;;0.45;0.43;;;16.70;57.10;;;;;;4997120;28;20574;-14
2022/04/11 02:15:00;;;;;;;0.50;0.50;;;16.70;57.10;;;;;;4995670;28;20038;-15
2022/04/11 02:17:26;;;;;;;0.40;0.40;;;16.70;57.10;;;;;;4978890;28;20042;-13
2022/04/11 02:19:51;;;;;;;0.40;0.40;;;16.70;57.10;;;;;;4995869;28;20049;-14
2022/04/11 02:22:17;;;;;;;0.47;0.47;;;16.70;57.10;;;;;;4975821;28;20055;-13
2022/04/11 02:24:43;;;;;;;0.50;0.40;;;16.70;57.10;;;;;;4976716;28;20129;-13
2022/04/11 02:27:08;;;;;;;0.40;0.40;;;16.70;57.20;;;;;;4977089;28;20043;-14
2022/04/11 02:29:34;;;;;;;0.32;0.32;;;16.70;57.10;;;;;;4996008;28;20537;-13
2022/04/11 02:31:59;;;;;;;0.73;0.47;;;16.70;57.10;;;;;;4996831;28;20050;-13
2022/04/11 02:34:26;;;;;;;0.30;0.30;;;16.70;57.10;;;;;;4996767;28;20542;-13
2022/04/11 02:36:51;;;;;;;0.30;0.30;;;16.70;57.10;;;;;;4995328;28;20134;-14
2022/04/11 02:39:17;;;;;;;0.38;0.38;;;16.60;57.00;;;;;;4995671;28;20070;-13
2022/04/11 02:41:42;;;;;;;0.30;0.30;;;16.70;57.10;;;;;;4996016;28;20046;-13
2022/04/11 02:44:08;;;;;;;0.40;0.40;;;16.70;57.10;;;;;;4995765;28;20050;-14
2022/04/11 02:46:34;;;;;;;0.60;0.40;;;16.70;57.00;;;;;;4995157;28;20050;-14
2022/04/11 02:48:59;;;;;;;0.30;0.30;;;16.70;57.10;;;;;;4995865;28;20042;-13
2022/04/11 02:51:25;;;;;;;0.40;0.40;;;16.70;57.00;;;;;;4996063;28;20412;-13
2022/04/11 02:53:50;;;;;;;0.35;0.35;;;16.60;57.10;;;;;;4995790;28;20069;-14
2022/04/11 02:56:16;;;;;;;0.35;0.35;;;16.60;57.20;;;;;;4996194;28;20046;-14
2022/04/11 02:58:42;;;;;;;0.30;0.30;;;16.60;57.10;;;;;;4995072;28;20080;-14
2022/04/11 03:01:08;;;;;;;0.28;0.28;;;16.60;57.00;;;;;;4995415;28;20891;-13
2022/04/11 03:03:33;;;;;;;0.40;0.40;;;16.60;57.10;;;;;;4996269;28;20093;-14
2022/04/11 03:05:59;;;;;;;0.30;0.30;;;16.60;57.00;;;;;;4995832;28;20074;-13
2022/04/11 03:08:24;;;;;;;0.30;0.30;;;16.60;57.00;;;;;;4994881;28;20038;-13
2022/04/11 03:10:50;;;;;;;0.40;0.32;;;16.60;57.00;;;;;;4994466;28;20611;-14
2022/04/11 03:13:15;;;;;;;0.32;0.32;;;16.60;57.10;;;;;;4995145;28;20042;-14
2022/04/11 03:15:41;;;;;;;0.85;0.40;;;16.60;57.10;;;;;;4986505;28;20627;-13
2022/04/11 03:18:07;;;;;;;0.82;0.43;;;16.60;57.20;;;;;;4976719;28;20031;-13
2022/04/11 03:20:33;;;;;;;0.38;0.38;;;16.50;57.20;;;;;;4976612;28;20058;-14
2022/04/11 03:22:58;;;;;;;0.30;0.30;;;16.60;57.30;;;;;;4992660;28;20049;-14
2022/04/11 03:25:24;;;;;;;0.50;0.50;;;16.60;57.30;;;;;;4994407;28;20050;-13
2022/04/11 03:27:50;;;;;;;0.30;0.30;;;16.60;57.20;;;;;;4994709;28;20129;-14
2022/04/11 03:30:15;;;;;;;0.22;0.22;;;16.60;57.10;;;;;;4995362;28;20038;-13
2022/04/11 03:32:41;;;;;;;0.32;0.32;;;16.60;57.10;;;;;;4995390;28;20038;-13
2022/04/11 03:35:07;;;;;;;0.20;0.20;;;16.60;57.20;;;;;;4996065;28;20052;-13
2022/04/11 03:37:33;;;;;;;0.30;0.30;;;16.50;57.20;;;;;;4995275;28;20046;-14
2022/04/11 03:39:58;;;;;;;0.40;0.40;;;16.60;57.20;;;;;;4992310;28;20070;-13
2022/04/11 03:42:24;;;;;;;0.30;0.30;;;16.60;57.20;;;;;;4995189;28;20046;-13
2022/04/11 03:44:49;;;;;;;0.30;0.30;;;16.60;57.20;;;;;;4994565;28;20057;-13
2022/04/11 03:47:15;;;;;;;0.30;0.30;;;16.60;57.20;;;;;;4995302;28;20053;-13
2022/04/11 03:49:41;;;;;;;0.30;0.30;;;16.60;57.20;;;;;;4995202;28;20043;-13
2022/04/11 03:52:06;;;;;;;0.40;0.40;;;16.50;57.10;;;;;;4994604;28;20042;-15
2022/04/11 03:54:32;;;;;;;0.30;0.30;;;16.50;57.20;;;;;;4995633;28;20077;-13
2022/04/11 03:56:57;;;;;;;0.30;0.30;;;16.50;57.30;;;;;;4994557;28;20496;-13
2022/04/11 03:59:23;;;;;;;0.30;0.30;;;16.50;57.30;;;;;;4995744;28;20049;-14
2022/04/11 04:01:49;;;;;;;0.22;0.22;;;16.50;57.20;;;;;;4994479;28;20042;-14
2022/04/11 04:04:14;;;;;;;0.40;0.30;;;16.50;57.20;;;;;;4997403;28;20046;-13
2022/04/11 04:06:40;;;;;;;0.20;0.20;;;16.50;57.20;;;;;;4998852;28;20073;-13
2022/04/11 04:09:06;;;;;;;0.30;0.30;;;16.50;57.20;;;;;;4998540;28;20054;-13
2022/04/11 04:11:32;;;;;;;0.25;0.25;;;16.50;57.20;;;;;;4999483;28;20042;-13
2022/04/11 04:13:57;;;;;;;0.30;0.30;;;16.50;57.30;;;;;;4997989;28;20058;-13
2022/04/11 04:16:23;;;;;;;0.20;0.20;;;16.50;57.20;;;;;;4982841;28;20495;-13
2022/04/11 04:18:49;;;;;;;0.40;0.40;;;16.50;57.20;;;;;;4979220;28;20518;-13
2022/04/11 04:21:18;;;;;;;0.30;0.30;;;16.50;57.20;;;;;;4981465;28;20705;-14
2022/04/11 04:23:44;;;;;;;0.30;0.30;;;16.50;57.20;;;;;;4998481;28;20114;-14
2022/04/11 04:26:10;;;;;;;0.30;0.30;;;16.40;57.20;;;;;;4999031;28;20053;-15
2022/04/11 04:28:35;;;;;;;0.28;0.28;;;16.50;57.30;;;;;;4999057;28;20050;-13
2022/04/11 04:31:01;;;;;;;0.30;0.30;;;16.50;57.30;;;;;;4997881;28;20057;-13
2022/04/11 04:33:30;;;;;;;0.28;0.28;;;16.50;57.20;;;;;;4997709;28;20080;-14
2022/04/11 04:35:56;;;;;;;0.20;0.20;;;16.50;57.20;;;;;;4998354;28;20042;-13
2022/04/11 04:38:21;;;;;;;0.30;0.30;;;16.50;57.20;;;;;;4997932;28;20057;-14
2022/04/11 04:40:47;;;;;;;0.20;0.20;;;16.50;57.30;;;;;;4998062;28;20042;-13
2022/04/11 04:43:12;;;;;;;0.20;0.20;;;16.50;57.20;;;;;;4999006;28;20117;-14
2022/04/11 04:45:38;;;;;;;0.30;0.30;;;16.50;57.20;;;;;;4997435;28;20039;-12
2022/04/11 04:48:05;;;;;;;0.38;0.38;;;16.40;57.30;;;;;;4984337;28;20109;-13
2022/04/11 04:50:31;;;;;;;0.20;0.20;;;16.50;57.20;;;;;;4994077;28;20061;-13
2022/04/11 04:52:56;;;;;;;0.20;0.20;;;16.50;57.20;;;;;;4997454;28;20042;-14
2022/04/11 04:55:23;;;;;;;0.30;0.28;;;16.40;57.20;;;;;;4998527;28;20062;-13
2022/04/11 04:57:49;;;;;;;0.20;0.20;;;16.50;57.20;;;;;;4997346;28;20045;-12
2022/04/11 05:00:15;;;;;;;0.30;0.30;;;16.50;57.20;;;;;;4998680;28;20039;-14
2022/04/11 05:02:42;;;;;;;0.22;0.22;;;16.40;57.30;;;;;;4997881;28;20138;-16
2022/04/11 05:05:09;;;;;;;0.30;0.30;;;16.40;57.30;;;;;;4997724;28;20108;-13
2022/04/11 05:07:35;;;;;;;0.20;0.20;;;16.40;57.30;;;;;;4998417;28;20043;-13
2022/04/11 05:10:04;;;;;;;0.30;0.30;;;16.40;57.30;;;;;;4997440;28;20045;-13
2022/04/11 05:12:44;;;;;;;0.28;0.28;;;16.50;57.30;;;;;;4998304;28;20066;-13
2022/04/11 05:15:10;;;;;;;0.25;0.25;;;16.40;57.30;;;;;;4976393;28;20065;-13
2022/04/11 05:17:36;;;;;;;0.20;0.20;;;16.40;57.30;;;;;;4998265;28;20133;-13
2022/04/11 05:20:03;;;;;;;0.57;0.30;;;16.40;57.50;;;;;;4997304;28;20081;-13
2022/04/11 05:22:28;;;;;;;1.59;0.40;;;16.40;57.40;;;;;;4648910;28;10001362;-14
2022/04/11 05:24:54;;;;;;;0.28;0.28;;;16.40;57.70;;;;;;4991298;28;20249;-13
2022/04/11 05:27:20;;;;;;;0.30;0.20;;;16.40;57.40;;;;;;4993789;28;20415;-13
2022/04/11 05:29:45;;;;;;;0.20;0.20;;;16.40;57.50;;;;;;4982263;28;20042;-13
2022/04/11 05:32:11;;;;;;;0.40;0.30;;;16.40;57.20;;;;;;4986637;28;20058;-14
2022/04/11 05:34:36;;;;;;;0.30;0.30;;;16.40;57.30;;;;;;4987841;28;20546;-13
2022/04/11 05:37:02;;;;;;;0.20;0.20;;;16.40;57.40;;;;;;4986046;28;20473;-14
2022/04/11 05:39:30;;;;;;;0.28;0.28;;;16.40;57.50;;;;;;4992784;28;20082;-13
2022/04/11 05:41:56;;;;;;;0.28;0.28;;;16.40;57.50;;;;;;4993148;28;20511;-14
2022/04/11 05:44:21;;;;;;;0.40;0.40;;;16.40;57.40;;;;;;4992537;28;20412;-13
2022/04/11 05:46:52;;;;;;;0.38;0.20;;;16.40;57.40;;;;;;4996925;28;20177;-14
2022/04/11 05:49:19;;;;;;;0.20;0.20;;;16.40;57.40;;;;;;4983837;28;20137;-13
2022/04/11 05:51:46;;;;;;;0.47;0.30;;;16.40;57.30;;;;;;4993062;28;20042;-13
2022/04/11 05:54:11;;;;;;;0.30;0.30;;;16.40;57.40;;;;;;4980275;28;20127;-13
2022/04/11 05:56:37;;;;;;;0.20;0.20;;;16.40;57.50;;;;;;4991546;28;20110;-14
2022/04/11 05:59:03;;;;;;;0.20;0.20;;;16.40;57.40;;;;;;4992835;28;20050;-13
2022/04/11 06:01:30;;;;;;;0.13;0.13;;;16.40;57.40;;;;;;4989548;28;20129;-14
2022/04/11 06:03:56;;;;;;;0.22;0.22;;;16.40;57.50;;;;;;4992359;28;20093;-13
2022/04/11 06:06:21;;;;;;;0.10;0.10;;;16.40;57.60;;;;;;4978482;28;20074;-13
2022/04/11 06:08:47;;;;;;;0.10;0.10;;;16.40;57.50;;;;;;4991396;28;20042;-13
2022/04/11 06:11:13;;;;;;;0.20;0.20;;;16.40;57.50;;;;;;4993337;28;20056;-14
2022/04/11 06:13:41;;;;;;;0.28;0.22;;;16.40;57.40;;;;;;4989141;28;20045;-13
2022/04/11 06:16:08;;;;;;;0.40;0.40;;;16.40;57.40;;;;;;4979379;28;20132;-13
2022/04/11 06:18:33;;;;;;;0.30;0.30;;;16.40;57.50;;;;;;4990013;28;20058;-13
2022/04/11 06:20:59;;;;;;;0.30;0.20;;;16.40;57.60;;;;;;4982111;28;20181;-14
2022/04/11 06:23:24;;;;;;;0.20;0.20;;;16.40;57.60;;;;;;4984548;28;20503;-13
2022/04/11 06:25:50;;;;;;;0.65;0.30;;;16.40;57.50;;;;;;4991275;28;20100;-14
2022/04/11 06:28:15;;;;;;;1.40;0.20;;;16.40;57.60;;;;;;4989681;28;20527;-13
2022/04/11 06:30:41;;;;;;;0.40;0.20;;;16.40;57.50;;;;;;4983091;28;20084;-13
2022/04/11 06:33:07;;;;;;;1.55;0.30;;;16.30;57.60;;;;;;4980143;28;20046;-13
2022/04/11 06:35:32;;;;;;;0.20;0.20;;;16.30;57.70;;;;;;4993072;28;20116;-13
2022/04/11 06:37:58;;;;;;;0.20;0.20;;;16.40;57.70;;;;;;4988805;28;20066;-13
2022/04/11 06:40:23;;;;;;;0.20;0.20;;;16.40;57.50;;;;;;4980810;28;20043;-14
2022/04/11 06:42:49;;;;;;;0.17;0.15;;;16.40;57.60;;;;;;4986720;28;20523;-14
2022/04/11 06:45:15;;;;;;;0.30;0.30;;;16.50;57.60;;;;;;4983631;28;20112;-13
2022/04/11 06:47:42;;;;;;;0.30;0.30;;;16.40;57.50;;;;;;4979904;28;20046;-15
2022/04/11 06:50:08;;;;;;;0.45;0.43;;;16.40;57.50;;;;;;4991588;28;20092;-14
2022/04/11 06:52:33;;;;;;;0.20;0.20;;;16.40;57.50;;;;;;4979822;28;20529;-13
2022/04/11 06:54:59;;;;;;;0.40;0.40;;;16.40;57.40;;;;;;4990344;28;20097;-13
2022/04/11 06:57:24;;;;;;;0.40;0.40;;;16.40;57.40;;;;;;4991701;28;20129;-13
2022/04/11 06:59:50;;;;;;;0.55;0.40;;;16.40;57.40;;;;;;4992636;28;20050;-13
2022/04/11 07:02:17;;;;;;;0.32;0.32;;;16.40;57.30;;;;;;4995076;28;20451;-14
2022/04/11 07:04:42;;;;;;;0.25;0.25;;;16.40;57.30;;;;;;4995969;28;20080;-13
2022/04/11 07:07:08;;;;;;;0.30;0.30;;;16.40;57.50;;;;;;4995443;28;20129;-13
2022/04/11 07:09:34;;;;;;;0.28;0.22;;;16.40;57.40;;;;;;4995241;28;20072;-13
2022/04/11 07:11:59;;;;;;;0.50;0.50;;;16.50;57.50;;;;;;4993655;28;20046;-13
2022/04/11 07:14:25;;;;;;;0.30;0.30;;;16.40;57.50;;;;;;4991254;28;20085;-13
2022/04/11 07:16:52;;;;;;;0.22;0.20;;;16.40;57.40;;;;;;4976714;28;20042;-14
2022/04/11 07:19:19;;;;;;;0.20;0.20;;;16.40;57.50;;;;;;4987392;28;20047;-14
2022/04/11 07:21:46;;;;;;;0.20;0.20;;;16.40;57.50;;;;;;4989851;28;20050;-12
2022/04/11 07:24:12;;;;;;;0.28;0.20;;;16.50;57.30;;;;;;4994654;28;20050;-13
2022/04/11 07:26:37;;;;;;;0.20;0.20;;;16.50;57.20;;;;;;4995882;28;20058;-14
2022/04/11 07:29:03;;;;;;;0.20;0.20;;;16.50;57.30;;;;;;4994484;28;20054;-13
2022/04/11 07:31:29;;;;;;;0.30;0.30;;;16.60;57.20;;;;;;4994866;28;20043;-13
2022/04/11 07:33:55;;;;;;;0.10;0.10;;;16.60;57.00;;;;;;4994178;28;20042;-13
2022/04/11 07:36:20;;;;;;;0.63;0.32;;;16.90;56.60;;;;;;4995503;28;20101;-13
2022/04/11 07:38:46;;;;;;;0.40;0.40;;;17.30;55.60;;;;;;4997393;28;20074;-14
2022/04/11 07:41:12;;;;;;;0.45;0.35;;;17.50;55.20;;;;;;4996933;28;20530;-13
2022/04/11 07:43:38;;;;;;;4.25;0.30;;;17.70;54.50;;;;;;4997641;28;20519;-13
2022/04/11 07:46:05;;;;;;;0.28;0.28;;;17.80;54.70;;;;;;4995829;28;20038;-14
2022/04/11 07:48:31;;;;;;;0.30;0.30;;;18.10;53.90;;;;;;4997053;28;20050;-13
2022/04/11 07:50:57;;;;;;;0.22;0.22;;;17.90;54.50;;;;;;4998923;28;20065;-14
2022/04/11 07:53:22;;;;;;;0.40;0.40;;;18.00;54.10;;;;;;4999389;28;20573;-14
2022/04/11 07:55:48;;;;;;;0.10;0.10;;;18.10;53.90;;;;;;4997481;28;20042;-13
2022/04/11 07:58:15;;;;;;;1.35;0.30;;;18.00;53.90;;;;;;4998657;28;20049;-13
2022/04/11 08:00:41;;;;;;;0.20;0.20;;;17.60;54.80;;;;;;4999443;28;20046;-13
2022/04/11 08:03:07;;;;;;;1.42;0.28;;;17.20;55.40;;;;;;4997649;28;20141;-13
2022/04/11 08:05:32;;;;;;;2.17;0.20;;;17.00;56.20;;;;;;4999230;28;20054;-13
2022/04/11 08:07:59;;;;;;;0.88;0.30;;;16.90;56.40;;;;;;4998070;28;20053;-13
2022/04/11 08:10:25;;;;;;;0.20;0.20;;;16.80;56.50;;;;;;4997290;28;20039;-14
2022/04/11 08:12:55;;;;;;;3.20;0.30;;;16.80;56.40;;;;;;4998892;28;20569;-14
2022/04/11 08:15:20;;;;;;;0.20;0.20;;;16.80;56.50;;;;;;4988433;28;20047;-13
2022/04/11 08:17:46;;;;;;;2.45;0.38;;;16.70;56.50;;;;;;4998388;28;20041;-15
2022/04/11 08:20:12;;;;;;;0.20;0.20;;;16.70;56.50;;;;;;4997212;28;20084;-15
2022/04/11 08:22:37;;;;;;;0.20;0.20;;;16.70;56.60;;;;;;4999035;28;20054;-13
2022/04/11 08:25:03;;;;;;;0.28;0.28;;;16.70;56.60;;;;;;4997506;28;20034;-15
2022/04/11 08:27:29;;;;;;;0.25;0.25;;;16.70;56.80;;;;;;4999072;28;20046;-13
2022/04/11 08:29:54;;;;;;;0.22;0.22;;;16.70;56.90;;;;;;4998874;28;20116;-13
2022/04/11 08:32:20;;;;;;;0.30;0.30;;;16.70;56.90;;;;;;4997657;28;20058;-14
2022/04/11 08:34:45;;;;;;;0.30;0.30;;;16.80;56.80;;;;;;4998238;28;20046;-13
2022/04/11 08:37:11;;;;;;;0.10;0.10;;;16.80;56.80;;;;;;4992216;28;20047;-13
2022/04/11 08:39:37;;;;;;;0.22;0.20;;;16.80;56.80;;;;;;4979093;28;20059;-13
2022/04/11 08:42:04;;;;;;;0.20;0.20;;;16.70;56.80;;;;;;4994840;28;20101;-14
2022/04/11 08:44:29;;;;;;;0.75;0.40;;;16.70;56.90;;;;;;4998777;28;20049;-14
2022/04/11 08:46:56;;;;;;;0.30;0.30;;;16.70;56.90;;;;;;4981690;28;20054;-14
2022/04/11 08:49:22;;;;;;;0.20;0.20;;;16.70;57.00;;;;;;4996339;28;20038;-13
2022/04/11 08:51:47;;;;;;;0.20;0.20;;;16.70;56.80;;;;;;4997076;28;20057;-14
2022/04/11 08:54:13;;;;;;;0.20;0.20;;;16.80;56.60;;;;;;4995987;28;20093;-13
2022/04/11 08:56:39;;;;;;;0.40;0.30;;;16.80;56.60;;;;;;4996031;28;20047;-14
2022/04/11 08:59:05;;;;;;;0.90;0.30;;;16.90;56.60;;;;;;4996441;28;20471;-13
2022/04/11 09:01:32;;;;;;;0.22;0.20;;;16.90;56.60;;;;;;4996003;28;20117;-13
2022/04/11 09:03:58;;;;;;;0.30;0.30;;;17.00;56.40;;;;;;5028548;28;20043;-14
2022/04/11 09:06:23;;;;;;;0.90;0.13;;;17.00;55.90;;;;;;4997589;28;20046;-13
2022/04/11 09:08:53;;;;;;;0.20;0.20;;;17.00;55.60;;;;;;4979513;28;20578;-13
2022/04/11 09:11:33;;;;;;;0.43;0.40;;;17.00;55.60;;;;;;4995484;28;20053;-14
2022/04/11 09:14:01;;;;;;;0.30;0.30;;;17.00;55.50;;;;;;4994230;28;20042;-14
2022/04/11 09:16:28;;;;;;;0.30;0.30;;;17.00;55.50;;;;;;4996400;28;20054;-13
2022/04/11 09:18:55;;;;;;;0.30;0.28;;;17.10;56.20;;;;;;4997514;28;20042;-15
2022/04/11 09:21:22;;;;;;;0.40;0.40;;;17.10;55.50;;;;;;4996537;28;20484;-13
2022/04/11 09:23:48;;;;;;;2.80;0.30;;;17.20;55.50;;;;;;4997088;28;20055;-13
2022/04/11 09:26:21;;;;;;;2.65;0.43;;;17.10;55.50;;;;;;4996460;28;20103;-14
2022/04/11 09:29:03;;;;;;;0.50;0.40;;;17.20;55.60;;;;;;4997603;28;20073;-13
2022/04/11 09:31:29;;;;;;;0.80;0.40;;;17.20;55.60;;;;;;4987380;28;20423;-16
2022/04/11 09:33:54;;;;;;;0.30;0.30;;;17.20;55.60;;;;;;4977817;28;20054;-14
2022/04/11 09:36:20;;;;;;;0.50;0.40;;;17.20;55.70;;;;;;4978253;28;20132;-14
2022/04/11 09:38:57;;;;;;;0.45;0.30;;;17.20;55.70;;;;;;4981082;28;20133;-14
2022/04/11 09:41:28;;;;;;;0.30;0.30;;;17.20;55.80;;;;;;4977753;28;20128;-14
2022/04/11 09:43:54;;;;;;;0.25;0.25;;;17.20;55.70;;;;;;4979921;28;20108;-15
2022/04/11 09:46:20;;;;;;;1.65;0.40;;;17.20;55.70;;;;;;4978657;28;20061;-16
2022/04/11 09:48:45;;;;;;;0.40;0.40;;;17.30;55.70;;;;;;4977799;28;20081;-15
2022/04/11 09:51:13;;;;;;;0.55;0.55;;;17.30;55.60;;;;;;4977189;28;20137;-15
2022/04/11 09:53:39;;;;;;;0.30;0.30;;;17.30;55.60;;;;;;4980055;28;20776;-15
2022/04/11 09:56:06;;;;;;;0.32;0.32;;;17.30;55.70;;;;;;4982803;28;20149;-14
2022/04/11 09:58:33;;;;;;;0.30;0.30;;;17.40;55.50;;;;;;4997366;28;20046;-15
2022/04/11 10:00:58;;;;;;;0.30;0.30;;;17.40;55.50;;;;;;4995682;28;20044;-16
2022/04/11 10:03:24;;;;;;;0.30;0.30;;;17.40;55.60;;;;;;4996450;28;20042;-14
2022/04/11 10:05:50;;;;;;;0.30;0.30;;;17.40;55.50;;;;;;4995755;28;20108;-14
2022/04/11 10:08:15;;;;;;;0.30;0.30;;;17.40;55.50;;;;;;4994346;28;20046;-15
2022/04/11 10:10:42;;;;;;;0.30;0.30;;;17.50;55.50;;;;;;4993698;28;20061;-17
2022/04/11 10:13:09;;;;;;;0.30;0.30;;;17.50;55.50;;;;;;4995043;28;20096;-15
2022/04/11 10:15:36;;;;;;;0.20;0.20;;;17.50;55.40;;;;;;4995592;28;20039;-14
2022/04/11 10:18:01;;;;;;;0.40;0.40;;;17.60;55.50;;;;;;4995499;28;20046;-17
2022/04/11 10:20:33;;;;;;;0.30;0.30;;;17.60;55.40;;;;;;4995571;28;20046;-14
2022/04/11 10:23:11;;;;;;;0.20;0.20;;;17.60;55.50;;;;;;4995461;28;20046;-14
2022/04/11 10:25:43;;;;;;;0.22;0.22;;;17.60;55.50;;;;;;4995881;28;20038;-14
2022/04/11 10:28:22;;;;;;;0.20;0.20;;;17.60;55.50;;;;;;4996100;28;20050;-13
2022/04/11 10:31:07;;;;;;;0.35;0.35;;;17.60;55.40;;;;;;4996713;28;20050;-14
2022/04/11 10:33:48;;;;;;;0.10;0.10;;;17.60;55.40;;;;;;4996231;28;20125;-14
2022/04/11 10:36:34;;;;;;;0.43;0.30;;;17.70;55.50;;;;;;4995143;28;20140;-14
2022/04/11 10:39:15;;;;;;;0.10;0.10;;;17.60;55.40;;;;;;4982003;28;20042;-14
2022/04/11 10:42:09;;;;;;;0.30;0.30;;;17.70;55.40;;;;;;4996110;28;20073;-14
2022/04/11 10:44:40;;;;;;;0.68;0.40;;;17.70;55.40;;;;;;4995152;28;20049;-14
2022/04/11 10:47:09;;;;;;;0.43;0.30;;;17.70;55.30;;;;;;4995606;28;20148;-14
2022/04/11 10:49:50;;;;;;;0.20;0.20;;;17.70;55.30;;;;;;4995672;28;20061;-14
2022/04/11 10:52:32;;;;;;;0.10;0.10;;;17.70;55.30;;;;;;4995670;28;20097;-14
2022/04/11 10:55:07;;;;;;;0.10;0.10;;;17.80;55.30;;;;;;4995476;28;20050;-13
2022/04/11 10:57:33;;;;;;;0.13;0.13;;;17.70;55.20;;;;;;4995634;28;20133;-14
2022/04/11 11:00:04;;;;;;;0.10;0.10;;;17.80;56.00;;;;;;4996145;28;20092;-13
2022/04/11 11:02:57;;;;;;;0.40;0.22;;;17.80;55.30;;;;;;4995510;28;20038;-13
2022/04/11 11:05:29;;;;;;;0.30;0.25;;;17.80;55.20;;;;;;4989242;28;20051;-13
2022/04/11 11:08:09;;;;;;;0.20;0.20;;;17.80;55.20;;;;;;4965597;28;20134;-14
2022/04/11 11:10:49;;;;;;;0.20;0.20;;;17.80;55.10;;;;;;4969996;28;20084;-14
2022/04/11 11:13:27;;;;;;;0.20;0.15;;;17.80;55.20;;;;;;4975507;28;20400;-13
2022/04/11 11:16:06;;;;;;;0.20;0.20;;;17.80;55.30;;;;;;4975213;28;20096;-13
2022/04/11 11:18:50;;;;;;;0.20;0.20;;;17.80;55.30;;;;;;4956647;28;20078;-14
2022/04/11 11:21:19;;;;;;;0.35;0.35;;;17.90;55.40;;;;;;4956761;28;20088;-13
2022/04/11 11:24:04;;;;;;;0.20;0.20;;;17.80;55.30;;;;;;4995535;28;20051;-13
2022/04/11 11:26:52;;;;;;;0.20;0.20;;;17.80;55.30;;;;;;4628188;28;10000387;-14
2022/04/11 11:29:22;;;;;;;0.30;0.20;;;17.80;55.30;;;;;;4969966;28;20053;-14
2022/04/11 11:31:59;;;;;;;0.35;0.20;;;17.90;55.40;;;;;;4973107;28;20444;-14
2022/04/11 11:34:26;;;;;;;0.25;0.25;;;17.90;55.30;;;;;;4966470;28;20134;-13
2022/04/11 11:36:57;;;;;;;0.15;0.15;;;17.90;55.30;;;;;;4972049;28;20515;-13
2022/04/11 11:39:23;;;;;;;0.32;0.30;;;17.90;55.40;;;;;;4970909;28;20602;-14
2022/04/11 11:41:50;;;;;;;0.30;0.20;;;17.90;55.40;;;;;;4955508;28;20050;-13
2022/04/11 11:44:16;;;;;;;0.20;0.20;;;17.90;55.40;;;;;;4960992;28;20051;-14
2022/04/11 11:46:58;;;;;;;0.30;0.30;;;17.90;55.50;;;;;;4972605;28;20051;-14
2022/04/11 11:49:24;;;;;;;0.20;0.20;;;17.90;55.60;;;;;;4961934;28;20047;-15
2022/04/11 11:51:50;;;;;;;0.30;0.30;;;18.00;55.60;;;;;;4967722;28;20058;-14
2022/04/11 11:54:52;;;;;;;0.20;0.20;;;18.00;55.80;;;;;;4963103;28;20050;-13
2022/04/11 11:57:18;;;;;;;0.30;0.30;;;18.00;56.10;;;;;;4945286;29;20420;-14
2022/04/11 11:59:59;;;;;;;0.40;0.40;;;18.00;56.40;;;;;;4955289;28;20614;-14
2022/04/11 12:05:25;;;;;;;1.30;0.40;;;18.00;56.90;;;;;;4961379;28;20053;-13
2022/04/11 12:08:13;;;;;;;0.60;0.47;;;18.00;56.90;;;;;;4966238;28;20043;-14
2022/04/11 12:10:42;;;;;;;0.50;0.32;;;18.10;57.50;;;;;;4964798;28;20039;-14
2022/04/11 12:13:07;;;;;;;0.38;0.30;;;18.00;57.10;;;;;;4994715;28;20448;-15
2022/04/11 12:15:34;;;;;;;0.45;0.40;;;18.00;57.10;;;;;;4976036;28;20510;-14
2022/04/11 12:18:01;;;;;;;0.40;0.40;;;18.00;57.10;;;;;;4970043;28;20501;-13
2022/04/11 12:20:29;;;;;;;0.52;0.50;;;18.00;57.20;;;;;;4974794;28;20055;-13
2022/04/11 12:23:11;;;;;;;0.30;0.30;;;18.00;57.30;;;;;;4975727;28;20416;-13
2022/04/11 12:25:41;;;;;;;1.38;0.60;;;18.00;57.30;;;;;;4975831;28;20642;-14
2022/04/11 12:28:16;;;;;;;0.82;0.40;;;18.00;57.30;;;;;;4965202;28;20050;-16
2022/04/11 12:30:46;;;;;;;0.40;0.40;;;18.10;57.40;;;;;;4979552;28;20047;-15
2022/04/11 12:33:35;;;;;;;0.50;0.50;;;18.10;57.20;;;;;;4979060;28;20047;-13
2022/04/11 12:36:11;;;;;;;1.48;0.50;;;18.10;57.30;;;;;;4976889;28;20070;-13
2022/04/11 12:38:51;;;;;;;0.55;0.40;;;18.10;57.30;;;;;;4978388;28;20703;-14
2022/04/11 12:41:30;;;;;;;0.60;0.50;;;18.10;57.30;;;;;;4978650;28;20039;-13
2022/04/11 12:44:18;;;;;;;1.52;0.40;;;18.10;57.30;;;;;;4976347;28;20503;-13
2022/04/11 12:46:45;;;;;;;0.40;0.40;;;18.10;57.30;;;;;;4959565;28;20047;-13
2022/04/11 12:49:14;;;;;;;0.40;0.40;;;18.10;57.40;;;;;;4966732;28;20039;-16
2022/04/11 12:51:40;;;;;;;0.57;0.43;;;18.10;57.50;;;;;;4978874;28;20071;-13